메인 페이지
METAR-TAF:

METAR-TAF

공항 :

쿠스코, 페루

위도: 13-33S, 경도: 071-59W, 고도: 3248m

현재 날씨관측

예보는 28분 전, 18:30시(UTC)에 발표되었습니다.
서북서6kt남남서풍과 풍을 오가는
온도 22°C
습도 27%
기압 1032 hPa
시정 10km 이상
고도 5000ft 상공 구름 보통

METAR: SPZO 181830Z 29006KT 200V010 9999 SCT050 22/02 Q1032 NOSIG RMK BIRD HAZARD RWY 10/28

시각: 13:58 (18:58 UTC)

예보

예보는 1 시간 58분 전, 17:00시(UTC)에 발표되었습니다.
예보 대상 시간: 18일 18시부터 19일 18시까지 (UTC)
여러 방향의 바람 5kt
시정 10km 이상
고도 4000ft 상공 구름 조금, 타워링 적운.
고도 8000ft 상공 구름 보통
일시적
18일 19시부터 18일 21시까지 (UTC)
서북서15kt
전환 중
19일 01시부터 19일 02시까지 (UTC)
고도 4000ft 상공 구름 조금
고도 8000ft 상공 구름 보통

TAF: SPZO 181700Z 1818/1918 VRB05KT 9999 FEW040TCU SCT080 TX23/1819Z TN06/1911Z TEMPO 1819/1821 29015KT BECMG 1901/1902 FEW040 SCT080

4,000개 이상의 공항 관측 자료 및 예보 (METAR 및 TAF 보고).

지도상에서 검색 가능한 기상관측소가 노란 점과 빨간 점으로 표시되어 있습니다.

기상관측소 명을 보려면 표시 위로 마우스를 이동하세요.

날씨 관측과 예보를 보려면 클릭하세요.

지도 변경 : 확대하려면 엑스 표시가 있는 녹색 버튼, 축소하려면 빼기 표시가 있는 녹색 버튼, 다음 페이지의 지도를 보려면 녹색 화살표를 클릭하세요.


METAR-TAF: